Time;durP1;ratioP1;P1;durP2;ratioP2;P2;SDS_P1;SDS_P2;PMS_P1;PMS_P2;Temp;Humidity;BMP_temperature;BMP_pressure;BME280_temperature;BME280_humidity;BME280_pressure;Samples;Min_cycle;Max_cycle;Signal;HPM_P1;HPM_P2
2021/12/07 00:01:04;;;;;;;19.33;11.00;;;0.80;99.90;;;;;;5002352;28;20461;-58
2021/12/07 00:03:30;;;;;;;20.40;11.20;;;0.80;99.90;;;;;;4989397;28;20191;-59
2021/12/07 00:05:56;;;;;;;18.60;11.00;;;0.80;99.90;;;;;;4988324;28;20921;-60
2021/12/07 00:08:22;;;;;;;20.13;10.30;;;0.90;99.90;;;;;;4990437;28;20203;-59
2021/12/07 00:10:50;;;;;;;15.30;9.80;;;0.80;99.90;;;;;;4987909;28;20216;-60
2021/12/07 00:13:16;;;;;;;18.03;9.60;;;0.80;99.90;;;;;;4989620;28;20421;-59
2021/12/07 00:15:42;;;;;;;16.80;9.50;;;0.90;99.90;;;;;;4990539;28;20458;-59
2021/12/07 00:18:08;;;;;;;17.80;9.50;;;0.90;99.90;;;;;;4991375;28;20945;-60
2021/12/07 00:20:34;;;;;;;16.40;9.57;;;0.90;99.90;;;;;;4985340;28;20433;-60
2021/12/07 00:23:05;;;;;;;17.83;10.73;;;0.90;99.90;;;;;;4989356;28;20844;-58
2021/12/07 00:25:30;;;;;;;18.53;10.77;;;0.90;99.90;;;;;;4985766;28;20878;-60
2021/12/07 00:27:56;;;;;;;21.00;10.50;;;0.90;99.90;;;;;;4989496;28;20486;-60
2021/12/07 00:30:28;;;;;;;19.50;10.77;;;0.90;99.90;;;;;;4990832;28;20318;-60
2021/12/07 00:33:08;;;;;;;15.87;9.97;;;0.90;99.90;;;;;;4991358;28;20610;-60
2021/12/07 00:35:35;;;;;;;16.37;10.27;;;0.90;99.90;;;;;;4988384;28;20802;-60
2021/12/07 00:38:05;;;;;;;16.03;10.00;;;1.00;99.90;;;;;;4986165;28;20453;-60
2021/12/07 00:40:31;;;;;;;18.33;10.83;;;0.90;99.90;;;;;;4986916;28;20424;-60
2021/12/07 00:42:57;;;;;;;20.70;12.03;;;0.90;99.90;;;;;;4985493;28;20434;-60
2021/12/07 00:45:24;;;;;;;21.47;11.93;;;0.90;99.90;;;;;;4991360;28;20466;-61
2021/12/07 00:47:52;;;;;;;19.63;11.90;;;0.90;99.90;;;;;;4990397;28;20446;-59
2021/12/07 00:50:20;;;;;;;21.37;11.70;;;0.90;99.90;;;;;;4989740;28;20524;-60
2021/12/07 00:52:45;;;;;;;18.13;11.40;;;0.90;99.90;;;;;;4985642;28;20435;-60
2021/12/07 00:55:16;;;;;;;19.77;11.23;;;0.80;99.90;;;;;;4988862;28;20455;-59
2021/12/07 00:57:42;;;;;;;21.73;11.23;;;0.80;99.90;;;;;;4987158;28;20466;-59
2021/12/07 01:00:13;;;;;;;19.70;12.00;;;0.80;99.90;;;;;;4987317;28;20434;-61
2021/12/07 01:02:38;;;;;;;19.83;11.93;;;0.80;99.90;;;;;;4983996;28;20914;-59
2021/12/07 01:05:13;;;;;;;21.83;11.53;;;0.80;99.90;;;;;;4984540;28;20529;-59
2021/12/07 01:26:32;;;;;;;17.17;9.17;;;0.80;99.90;;;;;;4987819;28;20939;-60
2021/12/07 01:28:58;;;;;;;13.47;8.07;;;0.80;99.90;;;;;;4988903;28;20430;-60
2021/12/07 01:32:16;;;;;;;11.60;7.63;;;0.80;99.90;;;;;;4987450;28;20175;-59
2021/12/07 01:34:49;;;;;;;19.00;8.67;;;0.80;99.90;;;;;;4980747;28;20678;-59
2021/12/07 01:37:31;;;;;;;11.90;7.60;;;0.80;99.90;;;;;;4992482;28;21024;-59
2021/12/07 01:50:33;;;;;;;9.70;7.20;;;0.80;99.90;;;;;;4989954;28;20972;-61
2021/12/07 02:00:51;;;;;;;9.93;6.40;;;0.80;99.90;;;;;;4992205;28;20450;-59
2021/12/07 02:03:18;;;;;;;9.97;6.07;;;0.70;99.90;;;;;;4986630;28;20431;-59
2021/12/07 02:05:44;;;;;;;10.10;6.50;;;0.70;99.90;;;;;;4989649;28;20461;-60
2021/12/07 02:08:09;;;;;;;9.90;6.30;;;0.70;99.90;;;;;;4988405;28;20486;-59
2021/12/07 02:10:36;;;;;;;10.47;7.00;;;0.70;99.90;;;;;;4988242;28;20474;-60
2021/12/07 02:13:06;;;;;;;12.50;7.43;;;0.70;99.90;;;;;;4986925;28;20184;-60
2021/12/07 02:15:33;;;;;;;8.10;5.60;;;0.70;99.90;;;;;;4991460;28;20497;-59
2021/12/07 02:18:00;;;;;;;8.30;5.47;;;0.70;99.90;;;;;;4993900;28;20891;-60
2021/12/07 02:20:28;;;;;;;7.97;5.73;;;0.70;99.90;;;;;;5003229;28;20438;-60
2021/12/07 02:22:54;;;;;;;6.80;5.20;;;0.70;99.90;;;;;;4991041;28;20422;-60
2021/12/07 02:25:20;;;;;;;7.43;4.67;;;0.70;99.90;;;;;;4985140;28;20453;-60
2021/12/07 02:27:48;;;;;;;5.77;4.80;;;0.70;99.90;;;;;;4990241;28;20257;-60
2021/12/07 02:30:19;;;;;;;6.43;4.30;;;0.70;99.90;;;;;;4989865;28;20198;-60
2021/12/07 02:32:50;;;;;;;6.50;4.87;;;0.70;99.90;;;;;;5003801;28;20543;-59
2021/12/07 02:35:24;;;;;;;5.30;4.40;;;0.70;99.90;;;;;;5005555;28;20456;-60
2021/12/07 02:37:52;;;;;;;6.37;4.43;;;0.70;99.90;;;;;;4991279;28;21007;-61
2021/12/07 02:40:18;;;;;;;5.90;4.30;;;0.70;99.90;;;;;;4987119;28;20438;-60
2021/12/07 02:42:45;;;;;;;4.87;4.30;;;0.70;99.90;;;;;;4988423;28;20521;-60
2021/12/07 02:45:11;;;;;;;5.00;3.80;;;0.70;99.90;;;;;;4986918;28;20507;-61
2021/12/07 02:47:37;;;;;;;5.90;4.10;;;0.70;99.90;;;;;;4988462;28;20497;-60
2021/12/07 02:50:05;;;;;;;5.20;4.20;;;0.70;99.90;;;;;;4984525;28;20489;-60
2021/12/07 02:52:31;;;;;;;4.67;3.50;;;0.70;99.90;;;;;;4989953;28;20254;-60
2021/12/07 02:54:57;;;;;;;4.30;3.83;;;0.80;99.90;;;;;;4986692;28;20457;-59
2021/12/07 02:57:22;;;;;;;4.47;3.77;;;0.80;99.90;;;;;;4987492;28;20195;-62
2021/12/07 02:59:58;;;;;;;5.23;3.60;;;0.80;99.90;;;;;;4986653;28;20198;-59
2021/12/07 03:02:25;;;;;;;3.57;3.27;;;0.80;99.90;;;;;;4988816;28;20426;-60
2021/12/07 03:05:02;;;;;;;5.13;3.40;;;0.80;99.90;;;;;;4989141;28;20444;-60
2021/12/07 03:07:48;;;;;;;4.00;3.43;;;0.90;99.90;;;;;;4986428;28;20923;-60
2021/12/07 03:26:41;;;;;;;5.17;2.83;;;1.00;99.90;;;;;;4986793;28;20874;-60
2021/12/07 03:29:07;;;;;;;4.03;2.90;;;1.00;99.90;;;;;;4987205;28;20450;-61
2021/12/07 03:31:33;;;;;;;3.43;2.73;;;1.00;99.90;;;;;;4982754;28;20546;-61
2021/12/07 03:34:00;;;;;;;3.10;2.50;;;1.00;99.90;;;;;;4985076;28;20270;-58
2021/12/07 03:36:26;;;;;;;2.60;2.40;;;1.00;99.90;;;;;;4987174;28;20266;-62
2021/12/07 03:38:53;;;;;;;2.63;2.43;;;0.90;99.90;;;;;;4985794;28;20554;-61
2021/12/07 03:41:19;;;;;;;3.20;2.30;;;1.00;99.90;;;;;;4981285;28;20572;-59
2021/12/07 03:43:46;;;;;;;5.17;2.50;;;1.00;99.90;;;;;;4984379;28;20473;-59
2021/12/07 03:46:13;;;;;;;3.20;2.50;;;1.00;99.90;;;;;;4982895;28;20450;-59
2021/12/07 03:48:41;;;;;;;2.17;2.03;;;1.00;99.90;;;;;;4986538;28;20549;-60
2021/12/07 03:51:07;;;;;;;2.40;2.20;;;1.00;99.90;;;;;;4986754;28;21019;-60
2021/12/07 03:53:33;;;;;;;2.10;2.00;;;1.00;99.90;;;;;;4984312;28;20433;-60
2021/12/07 03:56:00;;;;;;;2.13;1.90;;;1.00;99.90;;;;;;4988737;28;20966;-60
2021/12/07 03:58:26;;;;;;;2.07;1.87;;;1.00;99.90;;;;;;4984727;28;20855;-59
2021/12/07 04:00:52;;;;;;;2.13;1.90;;;1.00;99.90;;;;;;4985847;28;20500;-59
2021/12/07 04:03:19;;;;;;;2.30;1.70;;;1.00;99.90;;;;;;4984594;28;20199;-59
2021/12/07 04:05:50;;;;;;;2.10;1.90;;;1.00;99.90;;;;;;4983652;28;20880;-59
2021/12/07 04:08:24;;;;;;;4.20;2.90;;;1.00;99.90;;;;;;4989881;28;20977;-59
2021/12/07 04:10:50;;;;;;;2.67;2.00;;;1.00;99.90;;;;;;4982971;28;20473;-59
2021/12/07 04:13:16;;;;;;;1.97;1.83;;;1.00;99.90;;;;;;4985513;28;20474;-59
2021/12/07 04:15:42;;;;;;;4.20;1.70;;;1.00;99.90;;;;;;4986572;28;20495;-60
2021/12/07 04:18:08;;;;;;;2.23;1.80;;;0.90;99.90;;;;;;4986727;28;20302;-57
2021/12/07 04:20:34;;;;;;;3.77;3.00;;;0.90;99.90;;;;;;4986141;28;20991;-59
2021/12/07 04:23:00;;;;;;;2.50;2.20;;;1.00;99.90;;;;;;4985715;28;20492;-58
2021/12/07 04:25:25;;;;;;;2.97;1.97;;;0.90;99.90;;;;;;4986107;28;20450;-59
2021/12/07 04:27:55;;;;;;;2.27;1.87;;;0.90;99.90;;;;;;4983342;28;20207;-59
2021/12/07 04:30:26;;;;;;;3.50;1.97;;;0.90;99.90;;;;;;4986448;28;20175;-59
2021/12/07 04:32:52;;;;;;;6.33;1.80;;;0.90;99.90;;;;;;5001022;28;20541;-59
2021/12/07 04:35:19;;;;;;;2.27;1.80;;;0.90;99.90;;;;;;4984760;28;20466;-59
2021/12/07 04:37:45;;;;;;;3.43;1.90;;;0.90;99.90;;;;;;4982518;28;20694;-59
2021/12/07 04:40:15;;;;;;;3.30;1.80;;;0.90;99.90;;;;;;4983437;28;20434;-59
2021/12/07 04:42:41;;;;;;;7.23;2.00;;;0.90;99.90;;;;;;4987730;28;20431;-59
2021/12/07 04:45:10;;;;;;;2.00;1.90;;;0.90;99.90;;;;;;5002302;28;20442;-59
2021/12/07 04:58:15;;;;;;;1.77;1.67;;;0.80;99.90;;;;;;4983670;28;20453;-59
2021/12/07 05:00:41;;;;;;;2.80;1.77;;;0.80;99.90;;;;;;4976250;28;20440;-59
2021/12/07 05:03:11;;;;;;;2.97;2.07;;;0.90;99.90;;;;;;4985130;28;20179;-61
2021/12/07 05:05:43;;;;;;;5.20;1.80;;;0.90;99.90;;;;;;4984162;28;20205;-58
2021/12/07 05:08:15;;;;;;;4.10;1.70;;;0.90;99.90;;;;;;4977758;28;20556;-59
2021/12/07 05:24:15;;;;;;;2.60;1.60;;;0.80;99.90;;;;;;4984017;28;21058;-60
2021/12/07 05:40:36;;;;;;;4.20;1.93;;;1.00;99.90;;;;;;4984424;28;20501;-61
2021/12/07 05:43:03;;;;;;;3.20;1.70;;;0.90;99.90;;;;;;4982314;28;20447;-60
2021/12/07 05:45:35;;;;;;;2.20;1.60;;;0.90;99.90;;;;;;4979987;28;20445;-60
2021/12/07 05:48:03;;;;;;;1.93;1.83;;;0.90;99.90;;;;;;4980794;28;20988;-59
2021/12/07 05:50:33;;;;;;;1.97;1.70;;;0.90;99.90;;;;;;4979380;28;20460;-60
2021/12/07 05:52:59;;;;;;;2.50;1.77;;;0.90;99.90;;;;;;4977701;28;20446;-61
2021/12/07 05:55:25;;;;;;;3.10;1.80;;;0.90;99.90;;;;;;4973046;28;21303;-59
2021/12/07 05:57:51;;;;;;;1.97;1.77;;;0.90;99.90;;;;;;4985203;28;20450;-60
2021/12/07 06:00:26;;;;;;;2.30;2.10;;;0.90;99.90;;;;;;4979175;28;20439;-61
2021/12/07 06:03:05;;;;;;;3.47;2.20;;;0.90;99.90;;;;;;4985731;28;20206;-62
2021/12/07 06:05:32;;;;;;;2.80;2.27;;;0.90;99.90;;;;;;4985905;28;20505;-60
2021/12/07 06:07:58;;;;;;;2.83;2.43;;;0.90;99.90;;;;;;4988552;28;20732;-60
2021/12/07 06:10:24;;;;;;;3.37;2.13;;;0.90;99.90;;;;;;4986159;28;20464;-60
2021/12/07 06:12:52;;;;;;;3.13;2.47;;;0.80;99.90;;;;;;4990970;28;20436;-60
2021/12/07 06:15:20;;;;;;;4.07;2.43;;;0.80;99.90;;;;;;4995509;28;20871;-61
2021/12/07 06:17:46;;;;;;;3.70;2.20;;;0.80;99.90;;;;;;4995480;28;21026;-60
2021/12/07 06:20:12;;;;;;;7.43;2.23;;;0.80;99.90;;;;;;4991336;28;20729;-60
2021/12/07 06:22:38;;;;;;;2.70;2.50;;;0.80;99.90;;;;;;4998570;28;20422;-61
2021/12/07 06:25:05;;;;;;;3.10;2.60;;;0.80;99.90;;;;;;4994722;28;20429;-60
2021/12/07 06:27:31;;;;;;;4.73;3.60;;;0.80;99.90;;;;;;4993158;28;20199;-61
2021/12/07 06:29:57;;;;;;;3.73;2.63;;;0.80;99.90;;;;;;4999066;28;20488;-60
2021/12/07 06:32:24;;;;;;;3.63;2.47;;;0.80;99.90;;;;;;4997568;28;20437;-61
2021/12/07 06:34:51;;;;;;;3.17;2.87;;;0.80;99.90;;;;;;4992418;28;20466;-61
2021/12/07 06:37:16;;;;;;;3.30;2.40;;;0.90;99.90;;;;;;4987415;28;20455;-61
2021/12/07 06:39:42;;;;;;;5.13;2.70;;;0.80;99.90;;;;;;4973308;28;20419;-61
2021/12/07 06:42:08;;;;;;;3.50;2.43;;;0.80;99.90;;;;;;4985433;28;20189;-61
2021/12/07 06:44:34;;;;;;;2.50;2.30;;;0.80;99.90;;;;;;4998298;28;20206;-61
2021/12/07 06:47:00;;;;;;;3.57;2.63;;;0.80;99.90;;;;;;4993387;28;20610;-61
2021/12/07 06:49:25;;;;;;;4.10;2.40;;;0.70;99.90;;;;;;4993534;28;20219;-60
2021/12/07 06:51:52;;;;;;;3.33;2.27;;;0.70;99.90;;;;;;5004400;28;20455;-61
2021/12/07 06:54:18;;;;;;;2.57;2.17;;;0.70;99.90;;;;;;4991724;28;20189;-61
2021/12/07 06:56:44;;;;;;;2.30;2.10;;;0.60;99.90;;;;;;5008795;28;20912;-61
2021/12/07 06:59:10;;;;;;;2.87;2.13;;;0.60;99.90;;;;;;5009864;28;20452;-61
2021/12/07 07:01:36;;;;;;;7.43;3.10;;;0.60;99.90;;;;;;5009270;28;20183;-61
2021/12/07 07:04:03;;;;;;;5.10;2.10;;;0.50;99.90;;;;;;4994469;28;20217;-61
2021/12/07 07:06:28;;;;;;;3.13;2.07;;;0.50;99.90;;;;;;4983459;28;20705;-60
2021/12/07 07:08:54;;;;;;;2.70;2.37;;;0.50;99.90;;;;;;5002692;28;20952;-61
2021/12/07 07:11:21;;;;;;;2.57;2.37;;;0.60;99.90;;;;;;4994289;28;20191;-61
2021/12/07 07:13:47;;;;;;;7.60;2.30;;;0.60;99.90;;;;;;4999471;28;20607;-61
2021/12/07 07:16:14;;;;;;;2.67;2.00;;;0.60;99.90;;;;;;4997582;28;20839;-61
2021/12/07 07:18:40;;;;;;;2.40;1.90;;;0.60;99.90;;;;;;4994497;28;20609;-61
2021/12/07 07:21:06;;;;;;;2.47;2.13;;;0.70;99.90;;;;;;4994451;28;20957;-62
2021/12/07 07:23:32;;;;;;;3.03;1.77;;;0.70;99.90;;;;;;4995729;28;20183;-61
2021/12/07 07:25:58;;;;;;;4.30;1.90;;;0.70;99.90;;;;;;4991190;28;20565;-60
2021/12/07 07:28:29;;;;;;;3.83;1.53;;;0.70;99.90;;;;;;5006508;28;20586;-60
2021/12/07 07:30:57;;;;;;;1.90;1.80;;;0.70;99.90;;;;;;4993346;28;20448;-60
2021/12/07 07:33:23;;;;;;;1.90;1.80;;;0.70;99.90;;;;;;5006076;28;20434;-60
2021/12/07 07:35:49;;;;;;;2.70;2.00;;;0.80;99.90;;;;;;4995659;28;20471;-61
2021/12/07 07:38:15;;;;;;;6.73;1.97;;;0.80;99.90;;;;;;5004646;28;20550;-59
2021/12/07 07:40:43;;;;;;;3.50;2.20;;;0.80;99.90;;;;;;4982258;28;20584;-60
2021/12/07 07:43:09;;;;;;;3.43;1.93;;;0.80;99.90;;;;;;4991793;28;20705;-61
2021/12/07 07:45:35;;;;;;;3.83;2.03;;;0.90;99.90;;;;;;4990117;28;20431;-61
2021/12/07 07:48:01;;;;;;;4.27;2.20;;;0.90;99.90;;;;;;4981498;28;20475;-61
2021/12/07 07:50:26;;;;;;;4.00;2.20;;;1.00;99.90;;;;;;4994430;28;20657;-61
2021/12/07 07:52:52;;;;;;;6.20;2.20;;;1.00;99.90;;;;;;5000205;28;20254;-61
2021/12/07 07:55:18;;;;;;;3.23;2.13;;;1.00;99.90;;;;;;4992342;28;20408;-58
2021/12/07 07:57:44;;;;;;;6.23;2.43;;;1.10;99.90;;;;;;4998632;28;20232;-60
2021/12/07 08:00:15;;;;;;;2.40;2.03;;;1.10;99.90;;;;;;4990391;28;20207;-60
2021/12/07 08:02:41;;;;;;;4.13;2.00;;;1.10;99.90;;;;;;4999934;28;20882;-60
2021/12/07 08:05:07;;;;;;;2.10;1.80;;;1.10;99.90;;;;;;4986523;28;20526;-61
2021/12/07 08:07:33;;;;;;;6.97;2.03;;;1.10;99.90;;;;;;5004735;28;20472;-61
2021/12/07 08:09:59;;;;;;;5.20;2.33;;;1.10;99.90;;;;;;4993659;28;20509;-61
2021/12/07 08:12:25;;;;;;;7.20;2.00;;;1.10;99.90;;;;;;4991026;28;20505;-61
2021/12/07 08:14:51;;;;;;;3.50;1.70;;;1.20;99.90;;;;;;4981195;28;20457;-61
2021/12/07 08:19:52;;;;;;;4.97;1.80;;;1.20;99.90;;;;;;5047153;23;20733;-56
2021/12/07 08:22:17;;;;;;;3.47;1.83;;;1.30;99.90;;;;;;5023701;28;20438;-58
2021/12/07 08:24:44;;;;;;;6.83;1.90;;;1.30;99.90;;;;;;5025860;28;20175;-58
2021/12/07 08:27:09;;;;;;;3.53;1.70;;;1.40;99.90;;;;;;5024928;28;20362;-58
2021/12/07 08:29:35;;;;;;;7.70;2.57;;;1.40;99.90;;;;;;5028791;28;20519;-57
2021/12/07 08:32:01;;;;;;;4.00;2.20;;;1.50;99.90;;;;;;5011157;28;20270;-59
2021/12/07 08:34:26;;;;;;;1.67;1.57;;;1.50;99.90;;;;;;5009577;28;20710;-57
2021/12/07 08:36:52;;;;;;;4.17;1.60;;;1.60;99.90;;;;;;5008137;28;20257;-58
2021/12/07 08:39:18;;;;;;;2.57;1.83;;;1.60;99.90;;;;;;5005542;28;20642;-59
2021/12/07 08:41:43;;;;;;;9.93;2.27;;;1.70;99.90;;;;;;5006212;28;20179;-59
2021/12/07 08:44:10;;;;;;;2.67;2.00;;;1.70;99.90;;;;;;5008988;28;20197;-59
2021/12/07 08:46:36;;;;;;;5.93;2.30;;;1.70;99.90;;;;;;5019971;28;20273;-60
2021/12/07 08:49:03;;;;;;;2.00;1.40;;;1.80;99.90;;;;;;5007752;28;20554;-58
2021/12/07 08:51:29;;;;;;;1.97;1.63;;;1.80;99.90;;;;;;5002586;28;20426;-58
2021/12/07 08:54:02;;;;;;;2.10;1.40;;;1.90;99.90;;;;;;5009712;28;20407;-59
2021/12/07 09:01:56;;;;;;;1.93;1.50;;;2.10;99.90;;;;;;5023020;28;20564;-58
2021/12/07 09:04:22;;;;;;;4.00;1.43;;;2.10;98.00;;;;;;5021715;28;20410;-59
2021/12/07 09:06:49;;;;;;;3.73;1.40;;;2.20;98.50;;;;;;5021105;28;20194;-60
2021/12/07 09:09:14;;;;;;;2.80;1.37;;;2.30;98.30;;;;;;5018216;28;20439;-58
2021/12/07 09:11:41;;;;;;;3.63;2.00;;;2.30;98.60;;;;;;5009404;28;20447;-59
2021/12/07 09:14:14;;;;;;;4.37;1.80;;;2.40;98.30;;;;;;5005765;28;20175;-59
2021/12/07 09:16:39;;;;;;;3.80;2.07;;;2.40;98.00;;;;;;5010590;28;20445;-59
2021/12/07 09:19:05;;;;;;;3.13;1.73;;;2.50;98.50;;;;;;5023417;28;20456;-59
2021/12/07 09:21:33;;;;;;;2.60;1.60;;;2.60;98.30;;;;;;5007986;28;20588;-58
2021/12/07 09:23:59;;;;;;;6.53;1.67;;;2.60;97.80;;;;;;5004646;28;20483;-59
2021/12/07 09:26:25;;;;;;;3.27;1.93;;;2.70;97.40;;;;;;5002438;28;20804;-58
2021/12/07 09:28:51;;;;;;;4.13;1.67;;;2.80;96.00;;;;;;5006122;28;20465;-57
2021/12/07 09:31:17;;;;;;;4.50;2.20;;;2.90;94.30;;;;;;5006208;28;20179;-59
2021/12/07 09:33:43;;;;;;;7.03;2.00;;;2.90;93.10;;;;;;5006586;28;20844;-60
2021/12/07 09:36:10;;;;;;;5.93;1.67;;;3.00;92.80;;;;;;4997177;28;21055;-58
2021/12/07 09:38:37;;;;;;;4.00;1.47;;;3.00;93.60;;;;;;5008334;28;20192;-59
2021/12/07 09:41:05;;;;;;;1.30;1.20;;;3.00;93.10;;;;;;5006572;28;20484;-58
2021/12/07 09:43:34;;;;;;;2.27;1.53;;;3.00;94.00;;;;;;5001035;28;20432;-58
2021/12/07 09:46:00;;;;;;;5.27;1.70;;;3.00;94.40;;;;;;5006541;28;20588;-58
2021/12/07 09:48:26;;;;;;;3.50;1.47;;;3.20;94.40;;;;;;5005859;28;20454;-56
2021/12/07 09:50:54;;;;;;;19.47;2.33;;;3.30;94.00;;;;;;5005435;28;20443;-59
2021/12/07 09:53:22;;;;;;;2.43;1.60;;;3.40;93.40;;;;;;5009224;28;20400;-59
2021/12/07 09:55:48;;;;;;;2.97;1.90;;;3.50;90.40;;;;;;5013544;28;20501;-58
2021/12/07 09:58:15;;;;;;;4.73;1.90;;;3.50;90.30;;;;;;5011070;28;21006;-57
2021/12/07 10:00:44;;;;;;;5.13;1.70;;;3.60;88.40;;;;;;5003939;28;20438;-59
2021/12/07 10:03:11;;;;;;;2.50;1.40;;;3.60;89.40;;;;;;5010563;28;20496;-59
2021/12/07 10:05:40;;;;;;;2.77;1.40;;;3.70;89.60;;;;;;5010585;28;20591;-58
2021/12/07 10:08:07;;;;;;;3.00;1.30;;;3.80;85.40;;;;;;5004794;28;20466;-58
2021/12/07 10:10:45;;;;;;;2.83;1.40;;;3.90;83.40;;;;;;5015661;28;20424;-59
2021/12/07 10:13:13;;;;;;;3.60;1.50;;;3.90;82.30;;;;;;5010054;28;20801;-59
2021/12/07 10:15:40;;;;;;;5.63;1.47;;;4.00;80.20;;;;;;5006396;28;20542;-59
2021/12/07 10:18:13;;;;;;;5.07;1.50;;;4.10;79.60;;;;;;5009294;28;20458;-57
2021/12/07 10:20:44;;;;;;;7.77;2.47;;;4.20;80.00;;;;;;5007971;28;20426;-59
2021/12/07 10:23:21;;;;;;;1.83;1.60;;;4.30;79.20;;;;;;5010298;28;20409;-59
2021/12/07 10:25:55;;;;;;;3.93;1.33;;;4.40;75.20;;;;;;5011168;28;21117;-58
2021/12/07 10:28:31;;;;;;;3.90;1.50;;;4.40;75.50;;;;;;5018078;28;20450;-58
2021/12/07 10:31:06;;;;;;;6.87;1.50;;;4.50;75.10;;;;;;5008717;28;20426;-58
2021/12/07 10:33:41;;;;;;;3.17;1.33;;;4.60;75.30;;;;;;5009679;28;20521;-57
2021/12/07 10:36:17;;;;;;;5.90;1.60;;;4.70;70.00;;;;;;5008369;28;20819;-58
2021/12/07 10:39:07;;;;;;;5.70;1.50;;;4.70;70.70;;;;;;5008973;28;20458;-59
2021/12/07 10:41:36;;;;;;;4.53;1.90;;;4.70;65.40;;;;;;5000666;28;20446;-59
2021/12/07 10:44:11;;;;;;;3.97;1.47;;;4.70;64.40;;;;;;5009874;28;20841;-58
2021/12/07 10:46:59;;;;;;;10.33;1.67;;;4.60;64.70;;;;;;5009946;28;20989;-57
2021/12/07 10:49:39;;;;;;;3.43;1.47;;;4.50;63.30;;;;;;5031059;28;20500;-56
2021/12/07 10:52:42;;;;;;;3.03;1.43;;;4.50;63.90;;;;;;5024358;28;20671;-58
2021/12/07 10:55:16;;;;;;;7.83;1.80;;;4.50;63.00;;;;;;4958402;28;20907;-57
2021/12/07 10:57:47;;;;;;;2.30;1.47;;;4.50;62.30;;;;;;4992586;28;20435;-58
2021/12/07 11:00:15;;;;;;;3.90;1.40;;;4.50;64.10;;;;;;5007225;28;20453;-58
2021/12/07 11:02:44;;;;;;;3.00;1.30;;;4.60;63.80;;;;;;5010138;28;21075;-57
2021/12/07 11:05:31;;;;;;;4.03;1.40;;;4.70;63.40;;;;;;5009657;28;20426;-59
2021/12/07 11:07:58;;;;;;;2.97;1.40;;;4.80;64.80;;;;;;5005851;28;20602;-57
2021/12/07 11:10:30;;;;;;;6.50;1.80;;;4.70;64.00;;;;;;5006983;28;20670;-58
2021/12/07 11:13:02;;;;;;;2.97;1.43;;;4.50;63.30;;;;;;4991493;28;20839;-58
2021/12/07 11:15:34;;;;;;;2.90;1.60;;;4.30;64.00;;;;;;5008266;28;20455;-59
2021/12/07 11:18:05;;;;;;;5.20;2.03;;;4.20;64.80;;;;;;5012729;28;20462;-59
2021/12/07 11:20:32;;;;;;;1.97;1.80;;;4.10;66.20;;;;;;5009935;28;20423;-59
2021/12/07 11:23:05;;;;;;;1.70;1.50;;;4.00;67.30;;;;;;5010825;28;20445;-58
2021/12/07 11:31:25;;;;;;;2.80;1.90;;;4.00;71.20;;;;;;5010441;28;20511;-60
2021/12/07 11:33:54;;;;;;;2.87;1.67;;;4.20;75.40;;;;;;5013948;28;20438;-57
2021/12/07 11:36:25;;;;;;;7.70;3.40;;;4.20;72.90;;;;;;5012868;28;20550;-56
2021/12/07 11:38:52;;;;;;;7.73;2.63;;;4.20;71.60;;;;;;5018427;28;20466;-58
2021/12/07 11:41:33;;;;;;;3.10;1.63;;;4.30;73.70;;;;;;5024601;28;20422;-57
2021/12/07 11:44:05;;;;;;;4.13;1.97;;;4.20;71.30;;;;;;5017031;28;20813;-58
2021/12/07 11:46:32;;;;;;;3.53;2.17;;;4.20;72.30;;;;;;5008830;28;20515;-58
2021/12/07 11:49:13;;;;;;;4.97;2.40;;;4.20;72.10;;;;;;5004068;28;20880;-58
2021/12/07 11:51:41;;;;;;;3.97;2.20;;;4.10;73.70;;;;;;5019114;28;20530;-58
2021/12/07 11:54:07;;;;;;;6.07;2.70;;;4.20;76.20;;;;;;5013806;28;20414;-58
2021/12/07 11:56:33;;;;;;;6.87;3.30;;;4.10;76.80;;;;;;4997074;28;20455;-55
2021/12/07 11:58:59;;;;;;;6.10;2.73;;;4.10;78.90;;;;;;5008370;28;20970;-57
2021/12/07 12:01:25;;;;;;;2.63;2.00;;;4.10;80.30;;;;;;5006702;28;20423;-58
2021/12/07 12:03:51;;;;;;;5.10;2.57;;;4.00;77.40;;;;;;5012902;28;20791;-58
2021/12/07 12:06:17;;;;;;;6.20;2.20;;;3.90;76.80;;;;;;5017104;28;20518;-58
2021/12/07 12:08:43;;;;;;;3.17;2.40;;;3.90;79.70;;;;;;5019830;28;20195;-57
2021/12/07 12:11:46;;;;;;;3.27;2.50;;;3.90;81.30;;;;;;5030414;28;20419;-58
2021/12/07 12:14:20;;;;;;;6.60;2.90;;;3.90;82.80;;;;;;4993420;28;20241;-58
2021/12/07 12:17:11;;;;;;;2.20;1.93;;;3.90;81.60;;;;;;5005302;28;20442;-58
2021/12/07 12:19:46;;;;;;;4.87;2.30;;;3.90;84.00;;;;;;5008400;28;20443;-57
2021/12/07 12:22:38;;;;;;;5.90;1.70;;;4.00;84.60;;;;;;5009046;28;20434;-57
2021/12/07 12:25:16;;;;;;;4.93;2.10;;;4.00;80.30;;;;;;5013892;28;20495;-57
2021/12/07 12:27:43;;;;;;;5.93;2.07;;;4.00;83.30;;;;;;5009079;28;20481;-57
2021/12/07 12:30:20;;;;;;;3.77;1.90;;;4.00;82.20;;;;;;5018650;28;21017;-59
2021/12/07 12:32:53;;;;;;;7.57;2.40;;;4.00;83.10;;;;;;5007826;28;20430;-58
2021/12/07 12:35:48;;;;;;;6.80;2.10;;;4.10;83.90;;;;;;5006253;28;20463;-57
2021/12/07 12:38:27;;;;;;;7.30;2.70;;;4.20;83.00;;;;;;5014218;28;20789;-58
2021/12/07 12:40:54;;;;;;;4.87;1.87;;;4.30;79.70;;;;;;5008134;28;20506;-57
2021/12/07 12:44:15;;;;;;;2.10;1.90;;;4.30;77.40;;;;;;5010512;28;20420;-58
2021/12/07 12:46:41;;;;;;;4.97;1.83;;;4.30;76.90;;;;;;4914370;29;21319;-57
2021/12/07 12:49:11;;;;;;;2.53;2.10;;;4.30;79.80;;;;;;4913064;29;20456;-58
2021/12/07 12:51:51;;;;;;;4.10;2.17;;;4.30;82.40;;;;;;4962240;28;20422;-58
2021/12/07 12:54:19;;;;;;;2.03;1.83;;;4.30;81.80;;;;;;5005598;28;20425;-55
2021/12/07 12:56:46;;;;;;;2.90;2.10;;;4.30;79.60;;;;;;5000261;28;20527;-57
2021/12/07 12:59:12;;;;;;;5.73;1.73;;;4.20;80.30;;;;;;5001020;28;20486;-56
2021/12/07 13:01:44;;;;;;;7.07;1.80;;;4.20;81.90;;;;;;5000061;28;20443;-56
2021/12/07 13:04:22;;;;;;;3.03;1.90;;;4.20;82.20;;;;;;4996693;28;20423;-58
2021/12/07 13:06:54;;;;;;;5.00;1.50;;;4.10;83.20;;;;;;4998816;28;20443;-57
2021/12/07 13:09:20;;;;;;;7.73;1.97;;;4.10;84.70;;;;;;5007910;28;20526;-57
2021/12/07 13:11:45;;;;;;;4.47;2.03;;;4.00;85.20;;;;;;5001326;28;20433;-57
2021/12/07 13:14:32;;;;;;;9.63;2.33;;;4.00;82.80;;;;;;5003833;28;20266;-56
2021/12/07 13:17:16;;;;;;;2.93;1.80;;;4.00;85.30;;;;;;4997952;28;20179;-58
2021/12/07 13:20:06;;;;;;;5.57;3.00;;;4.00;85.10;;;;;;4998904;28;20486;-56
2021/12/07 13:22:37;;;;;;;4.20;2.23;;;4.10;83.00;;;;;;5011215;28;20434;-58
2021/12/07 13:25:18;;;;;;;6.50;2.17;;;4.00;83.40;;;;;;4998952;28;20865;-55
2021/12/07 13:28:01;;;;;;;5.00;2.37;;;3.90;83.70;;;;;;5009176;28;20859;-56
2021/12/07 13:30:44;;;;;;;5.03;1.93;;;3.90;85.00;;;;;;5003766;28;20481;-56
2021/12/07 13:33:35;;;;;;;5.00;2.57;;;3.90;85.00;;;;;;4999765;28;20460;-56
2021/12/07 13:36:22;;;;;;;2.77;2.17;;;4.00;84.70;;;;;;5001663;28;20495;-57
2021/12/07 13:38:48;;;;;;;6.30;2.50;;;4.10;86.10;;;;;;4990162;28;21097;-58
2021/12/07 13:41:14;;;;;;;2.63;2.00;;;4.30;88.40;;;;;;4996729;28;20435;-57
2021/12/07 13:43:42;;;;;;;3.30;2.10;;;4.40;87.60;;;;;;4998947;28;20445;-57
2021/12/07 13:46:13;;;;;;;3.73;2.17;;;4.30;87.00;;;;;;5003044;28;20173;-57
2021/12/07 13:48:40;;;;;;;4.20;2.20;;;4.30;86.70;;;;;;5008728;28;20972;-57
2021/12/07 13:51:07;;;;;;;2.20;2.10;;;4.20;86.90;;;;;;4997704;28;20446;-58
2021/12/07 13:53:38;;;;;;;3.00;1.90;;;4.20;85.50;;;;;;4997230;28;20541;-54
2021/12/07 13:56:05;;;;;;;5.93;2.40;;;4.10;85.70;;;;;;4996792;28;20553;-53
2021/12/07 13:58:50;;;;;;;7.67;1.90;;;4.00;87.80;;;;;;4992656;28;20893;-58
2021/12/07 14:01:16;;;;;;;8.10;2.20;;;4.00;89.50;;;;;;4996605;28;20424;-56
2021/12/07 14:03:43;;;;;;;5.30;2.10;;;3.90;89.10;;;;;;5007440;28;20466;-58
2021/12/07 14:06:09;;;;;;;4.77;2.10;;;3.80;90.30;;;;;;4997712;28;20440;-59
2021/12/07 14:08:35;;;;;;;2.70;2.20;;;3.70;90.60;;;;;;4995909;28;21279;-57
2021/12/07 14:11:01;;;;;;;7.27;2.40;;;3.60;90.50;;;;;;5003476;28;20197;-60
2021/12/07 14:13:27;;;;;;;4.53;2.13;;;3.60;91.00;;;;;;5000129;28;20318;-58
2021/12/07 14:15:52;;;;;;;6.30;2.10;;;3.50;91.00;;;;;;4998310;28;20966;-53
2021/12/07 14:20:55;;;;;;;8.70;2.37;;;3.40;91.30;;;;;;5030059;28;20822;-62
2021/12/07 14:23:29;;;;;;;6.63;2.00;;;3.40;91.70;;;;;;5037680;28;20450;-63
2021/12/07 14:26:09;;;;;;;10.50;2.53;;;3.40;92.30;;;;;;5048225;28;20414;-63
2021/12/07 14:28:40;;;;;;;2.80;1.83;;;3.30;92.90;;;;;;5043153;28;20551;-62
2021/12/07 14:31:21;;;;;;;2.77;2.17;;;3.30;93.40;;;;;;5043215;28;20603;-62
2021/12/07 14:33:59;;;;;;;6.00;2.43;;;3.30;93.90;;;;;;5048759;28;20741;-62
2021/12/07 14:36:27;;;;;;;6.87;2.50;;;3.30;94.60;;;;;;5038386;28;20521;-62
2021/12/07 14:38:57;;;;;;;8.50;2.70;;;3.20;95.10;;;;;;5030812;28;20458;-62
2021/12/07 14:41:25;;;;;;;3.93;2.57;;;3.20;95.60;;;;;;5029020;28;20560;-62
2021/12/07 14:43:52;;;;;;;6.27;2.80;;;3.20;96.30;;;;;;5032674;28;20632;-62
2021/12/07 14:46:20;;;;;;;8.80;2.53;;;3.10;96.90;;;;;;5031585;28;20426;-62
2021/12/07 14:48:47;;;;;;;3.80;2.37;;;3.10;97.40;;;;;;5029630;28;20500;-62
2021/12/07 14:51:14;;;;;;;7.60;2.87;;;3.10;97.90;;;;;;5027627;28;20978;-60
2021/12/07 14:53:55;;;;;;;9.27;2.30;;;3.00;98.30;;;;;;5047521;28;21028;-61
2021/12/07 14:56:22;;;;;;;6.70;2.93;;;3.00;98.70;;;;;;5029141;28;20511;-62